Hestrud (Nord, France) - 208 m
Donnes mto: Actuelle jeudi, 29/06/2017 02:04
Date Horaire Temp Out Temp. E. min Temp. E. max Temp. Sol 1 Hum Out Hum. Sol 1 Press Rain Wind Dir Dir Solar Ev.Tr. UV Hi Solar Rad Dew Point Windchill Wind (Gust)
29/06/2017 02:04 15,8 C 15,8 C 15,8 C 15,6 C 97 % 30 cb 994,4 hPa 2,4 mm 8,0 km/h (2 Bft) SO 225 0 min 0,000 mm 0,0 UV-I 0 W/m 15,3 C 14,9 C 11,3 km/h (2 Bft)
29/06/2017 01:04 15,9 C 15,9 C 15,9 C 15,6 C 97 % 39 cb 994,6 hPa 0,0 mm 6,4 km/h (2 Bft) S 180 0 min 0,000 mm 0,0 UV-I 0 W/m 15,4 C 15,9 C 9,7 km/h (2 Bft)
29/06/2017 00:04 15,8 C 15,8 C 15,8 C 15,6 C 96 % 36 cb 994,8 hPa 0,0 mm 1,6 km/h (1 Bft) S-SE 157 0 min 0,000 mm 0,0 UV-I 0 W/m 15,2 C 15,8 C 6,4 km/h (2 Bft)
28/06/2017 23:04 16,0 C 16,0 C 16,0 C 15,6 C 95 % 33 cb 995,0 hPa 0,0 mm 0,0 km/h (0 Bft) N 0 0 min 0,000 mm 0,0 UV-I 0 W/m 15,2 C 16,0 C 0,0 km/h (0 Bft)
28/06/2017 22:04 17,0 C 17,0 C 17,0 C 16,1 C 92 % 30 cb 995,0 hPa 0,0 mm 0,0 km/h (0 Bft) N 0 0 min 0,025 mm 0,0 UV-I 0 W/m 15,7 C 17,0 C 0,0 km/h (0 Bft)
28/06/2017 21:04 18,4 C 18,4 C 18,4 C 18,3 C 93 % 29 cb 994,9 hPa 0,0 mm 3,2 km/h (1 Bft) O 270 6 min 0,051 mm 0,0 UV-I 52 W/m 17,2 C 18,4 C 4,8 km/h (1 Bft)
28/06/2017 20:04 18,1 C 18,1 C 18,1 C 17,8 C 95 % 28 cb 994,9 hPa 0,0 mm 1,6 km/h (1 Bft) O-SO 247 13 min 0,051 mm 0,0 UV-I 188 W/m 17,3 C 18,1 C 3,2 km/h (1 Bft)
28/06/2017 19:04 17,8 C 17,8 C 17,8 C 17,8 C 93 % 27 cb 994,9 hPa 6,6 mm 0,0 km/h (0 Bft) N 0 0 min 0,051 mm 0,5 UV-I 77 W/m 16,7 C 17,8 C 0,0 km/h (0 Bft)
28/06/2017 18:04 21,8 C 21,8 C 21,8 C 20,6 C 70 % 59 cb 994,7 hPa 0,0 mm 4,8 km/h (1 Bft) S-SO 202 23 min 0,178 mm 0,0 UV-I 37 W/m 16,1 C 21,8 C 8,0 km/h (2 Bft)
28/06/2017 17:04 22,2 C 22,2 C 22,2 C 21,1 C 69 % 57 cb 995,1 hPa 0,0 mm 11,3 km/h (2 Bft) SO 225 55 min 0,279 mm 1,3 UV-I 100 W/m 16,2 C 20,7 C 12,9 km/h (3 Bft)
28/06/2017 16:04 22,4 C 22,4 C 22,4 C 21,1 C 70 % 54 cb 995,4 hPa 0,0 mm 9,7 km/h (2 Bft) SO 225 60 min 0,305 mm 2,4 UV-I 302 W/m 16,7 C 21,4 C 12,9 km/h (3 Bft)
28/06/2017 15:04 20,1 C 20,0 C 20,1 C 18,9 C 84 % 47 cb 996,3 hPa 0,0 mm 9,7 km/h (2 Bft) S-SO 202 59 min 0,178 mm 2,4 UV-I 262 W/m 17,3 C 18,8 C 12,9 km/h (3 Bft)
28/06/2017 14:04 17,7 C 17,7 C 17,7 C 17,2 C 91 % 39 cb 996,9 hPa 0,0 mm 9,7 km/h (2 Bft) SO 225 38 min 0,127 mm 1,1 UV-I 144 W/m 16,2 C 16,2 C 11,3 km/h (2 Bft)
28/06/2017 13:04 17,3 C 17,3 C 17,3 C 17,2 C 95 % 35 cb 997,1 hPa 0,0 mm 9,7 km/h (2 Bft) S 180 37 min 0,102 mm 1,9 UV-I 248 W/m 16,5 C 15,8 C 12,9 km/h (3 Bft)
28/06/2017 12:04 16,5 C 16,5 C 16,5 C 16,7 C 97 % 34 cb 997,1 hPa 0,0 mm 9,7 km/h (2 Bft) SO 225 10 min 0,051 mm 1,1 UV-I 151 W/m 16,0 C 14,9 C 16,1 km/h (3 Bft)
28/06/2017 11:04 16,2 C 16,1 C 16,2 C 16,1 C 97 % 35 cb 997,0 hPa 0,2 mm 8,0 km/h (2 Bft) SO 225 0 min 0,025 mm 0,0 UV-I 33 W/m 15,7 C 15,4 C 17,7 km/h (3 Bft)
28/06/2017 10:04 16,7 C 16,7 C 16,7 C 16,7 C 97 % 40 cb 996,8 hPa 0,6 mm 8,0 km/h (2 Bft) SO 225 0 min 0,025 mm 0,0 UV-I 33 W/m 16,2 C 15,9 C 9,7 km/h (2 Bft)
28/06/2017 09:04 17,1 C 17,1 C 17,1 C 16,7 C 97 % 65 cb 996,4 hPa 0,6 mm 8,0 km/h (2 Bft) SO 225 0 min 0,025 mm 0,0 UV-I 76 W/m 16,6 C 16,3 C 9,7 km/h (2 Bft)
28/06/2017 08:04 17,2 C 17,2 C 17,2 C 17,2 C 97 % 73 cb 996,4 hPa 0,0 mm 9,7 km/h (2 Bft) SO 225 0 min 0,000 mm 0,0 UV-I 14 W/m 16,7 C 15,7 C 11,3 km/h (2 Bft)
28/06/2017 07:04 17,7 C 17,7 C 17,8 C 17,2 C 97 % 73 cb 996,4 hPa 1,0 mm 8,0 km/h (2 Bft) SO 225 0 min 0,000 mm 0,0 UV-I 11 W/m 17,2 C 16,9 C 11,3 km/h (2 Bft)
28/06/2017 06:04 17,8 C 17,8 C 17,8 C 17,2 C 97 % 71 cb 996,5 hPa 0,0 mm 3,2 km/h (1 Bft) S-SO 202 0 min 0,000 mm 0,0 UV-I 5 W/m 17,3 C 17,8 C 6,4 km/h (2 Bft)
28/06/2017 05:04 17,9 C 17,9 C 17,9 C 17,8 C 97 % 71 cb 997,0 hPa 0,0 mm 8,0 km/h (2 Bft) SE 135 0 min 0,000 mm 0,0 UV-I 0 W/m 17,4 C 17,1 C 11,3 km/h (2 Bft)
28/06/2017 04:04 17,9 C 17,9 C 17,9 C 17,8 C 98 % 69 cb 997,1 hPa 0,0 mm 6,4 km/h (2 Bft) S 180 0 min 0,000 mm 0,0 UV-I 0 W/m 17,6 C 17,9 C 9,7 km/h (2 Bft)
28/06/2017 03:04 17,6 C 17,6 C 17,6 C 17,2 C 97 % 67 cb 997,7 hPa 0,0 mm 4,8 km/h (1 Bft) S-SO 202 0 min 0,000 mm 0,0 UV-I 0 W/m 17,1 C 17,6 C 6,4 km/h (2 Bft)
28/06/2017 03:00 17,6 C 17,5 C 17,6 C 17,2 C 97 % 66 cb 997,7 hPa 0,0 mm 4,8 km/h (1 Bft) S-SO 202 0 min 0,000 mm 0,0 UV-I 0 W/m 17,1 C 17,6 C 8,0 km/h (2 Bft)
_ Min-Heure 23:50 23:50 23:32 22:40 17:30 18:37 01:35 - 03:08 - - - - - - 23:29 10:25 18:34
Minimum _ 15,7 C 15,7 C 15,8 C 15,6 C 66 % 26 cb 994,3 hPa - 0,0 km/h (0 Bft) - - - - - - 15,0 C 12,1 C 0,0 km/h (0 Bft)
_ Max-Heure 16:39 16:40 16:39 16:30 03:39 06:50 03:00 18:19 18:12 - - 11:28 16:00 15:31 15:31 15:37 16:43 18:12
Maximum _ 22,8 C 22,8 C 22,8 C 21,7 C 98 % 74 cb 997,7 hPa 0,8 mm 19,3 km/h
S (3 Bft)
- - 1 min 0,305 mm 6,3 UV-I 1000 W/m 18,0 C 22,8 C 33,8 km/h
SO (5 Bft)
Moyenne _ 17,9 C 17,8 C 17,9 C 17,5 C 92 % 49 cb 996,1 hPa #11,4 mm 6,1 km/h (2 Bft) SO - #0 min. #0,000 mm 0,0 UV-I 0 W/m 16,5 C 17,2 C 9,0 km/h (2 Bft)